Varna, Bulgaria

5:33 PM EEST on April 25, 2015 (GMT +0300)
Varna - Izgrev | | Change Station
CLOSE
Current Station
Personal Weather Station
Location: Варна, Варна
Elevation: 400 ft
Nearby Weather Stations

Elev 400 ft 43.23 °N, 27.91 °E | Updated 7 seconds ago

Scattered Clouds
Scattered Clouds
60.8 °F
Feels Like 60.8 °F
N
1.2
Wind Variable Wind from WSW
Gusts 1.2 mph

Today
High -- | Low -- °F
--% Chance of Precip.
Yesterday
High -- | Low -- °F
Precip. -- in
6:11 AM 8:02 PM
Waxing Crescent, 46% visible
Pressure 29.95 in
Visibility 6.2 miles
Clouds Few 3300 ft
Scattered Clouds 4000 ft
Dew Point 49 °F
Humidity 65%
Rainfall 0.00 in
Snow Depth Not available.
UV 2 out of 12
Pollen Not available.
Air Quality Not available.
Flu Activity Not available.
METAR LBWN 251430Z 13009KT 9999 VCSH FEW033CB SCT040 16/10 Q1014 NOSIG

More Conditions Fewer Conditions

Pressure 29.95 in
Visibility 6.2 miles
Clouds Few 3300 ft
Scattered Clouds 4000 ft
Dew Point 49 °F
Humidity 65%
Rainfall 0.00 in
Snow Depth Not available.
UV 2 out of 12
Pollen Not available.
Air Quality Not available.
Flu Activity Not available.
METAR LBWN 251430Z 13009KT 9999 VCSH FEW033CB SCT040 16/10 Q1014 NOSIG

More Conditions Fewer Conditions

10-Day Weather Forecast

Almanac

Astronomy

Apr. 25, 2015 Rise Set
Actual Time
Civil Twilight
Nautical Twilight
Astronomical Twilight
Moon
Length of Visible Light
Length of Day
Tomorrow will be .
, % of the Moon is Illuminated

Today's Extremes

Country Highs Country Lows

Community

WunderPhotos

Upload Photos

1,816,688 photos uploaded!

WunderBlogs® & News

Nearby

Air Quality

  Air Quality AQ Index Pollutant
Not available.

Snow Depth

Station Depth Elevation

Earthquake Activity

City Distance Mag. Time & Date
Minimum magnitude displayed is 2.5.

Coastal Water Temperatures

Place Temperature

Stations

Nearby Weather Stations

Station Location Temp. Windchill Dew Point Humidity Wind Precip. Elev Updated Type